Time;durP1;ratioP1;P1;durP2;ratioP2;P2;SDS_P1;SDS_P2;PMS_P1;PMS_P2;Temp;Humidity;BMP_temperature;BMP_pressure;BME280_temperature;BME280_humidity;BME280_pressure;Samples;Min_cycle;Max_cycle;Signal;HPM_P1;HPM_P2
2022/03/10 00:00:43;;;;;;;21.15;11.55;;;3.90;51.70;;;;;;9181316;19;20021;-60
2022/03/10 00:03:48;;;;;;;29.60;12.38;;;3.80;51.70;;;;;;9176764;19;20030;-60
2022/03/10 00:06:53;;;;;;;25.05;11.00;;;3.80;51.80;;;;;;9178941;19;20018;-60
2022/03/10 00:09:58;;;;;;;27.17;13.05;;;3.80;51.80;;;;;;9176216;19;20019;-60
2022/03/10 00:13:06;;;;;;;21.63;12.20;;;3.70;51.80;;;;;;9180369;19;20019;-60
2022/03/10 00:16:11;;;;;;;27.60;11.48;;;3.70;51.80;;;;;;9180670;19;20370;-61
2022/03/10 00:19:17;;;;;;;25.45;12.52;;;3.70;51.90;;;;;;9179958;19;20014;-60
2022/03/10 00:22:22;;;;;;;22.58;11.43;;;3.60;51.90;;;;;;9174912;19;20029;-61
2022/03/10 00:25:27;;;;;;;23.02;11.88;;;3.60;52.00;;;;;;9180409;19;20022;-61
2022/03/10 00:28:35;;;;;;;24.73;13.00;;;3.60;52.00;;;;;;9178121;19;20014;-60
2022/03/10 00:31:40;;;;;;;27.48;13.77;;;3.60;52.10;;;;;;9177417;19;20019;-61
2022/03/10 00:34:45;;;;;;;28.40;12.73;;;3.50;52.10;;;;;;9178621;19;20488;-61
2022/03/10 00:37:51;;;;;;;29.48;11.90;;;3.50;52.10;;;;;;9178938;19;20026;-60
2022/03/10 00:40:58;;;;;;;23.02;12.38;;;3.50;52.20;;;;;;9179073;19;20014;-62
2022/03/10 00:44:06;;;;;;;25.42;12.73;;;3.40;52.20;;;;;;9177328;19;20021;-61
2022/03/10 00:47:10;;;;;;;28.60;13.13;;;3.40;52.30;;;;;;9178649;19;20014;-59
2022/03/10 00:50:16;;;;;;;22.58;11.88;;;3.40;52.30;;;;;;9177832;19;20022;-61
2022/03/10 00:53:21;;;;;;;27.27;13.25;;;3.30;52.30;;;;;;9178107;19;20010;-63
2022/03/10 00:56:26;;;;;;;30.17;13.38;;;3.30;52.30;;;;;;9177213;19;20056;-60
2022/03/10 00:59:34;;;;;;;26.50;13.57;;;3.30;53.00;;;;;;9175870;19;20029;-60
2022/03/10 01:02:39;;;;;;;28.60;13.95;;;3.30;52.50;;;;;;9178532;19;20615;-60
2022/03/10 01:05:44;;;;;;;26.55;13.25;;;3.20;52.50;;;;;;9177238;19;20018;-61
2022/03/10 01:08:49;;;;;;;27.33;13.30;;;3.20;52.60;;;;;;9175138;19;20018;-60
2022/03/10 01:11:54;;;;;;;32.25;13.20;;;3.20;52.50;;;;;;9177367;19;20029;-61
2022/03/10 01:15:02;;;;;;;25.45;13.52;;;3.20;52.60;;;;;;9177989;19;20846;-61
2022/03/10 01:18:07;;;;;;;26.88;12.85;;;3.20;52.70;;;;;;9178527;19;20014;-60
2022/03/10 01:21:12;;;;;;;27.52;13.40;;;3.10;52.60;;;;;;9172537;19;20018;-60
2022/03/10 01:24:17;;;;;;;23.90;12.48;;;3.10;52.60;;;;;;9175620;19;20022;-61
2022/03/10 01:27:22;;;;;;;25.75;13.27;;;3.10;53.30;;;;;;9179265;19;20023;-60
2022/03/10 01:30:30;;;;;;;24.50;12.43;;;3.10;52.70;;;;;;9176623;19;20471;-60
2022/03/10 01:33:35;;;;;;;22.33;11.82;;;3.10;52.80;;;;;;9176664;19;20029;-61
2022/03/10 01:36:40;;;;;;;25.23;12.88;;;3.00;52.70;;;;;;9175815;19;20015;-63
2022/03/10 01:39:45;;;;;;;25.92;12.88;;;3.00;52.80;;;;;;9176825;19;20029;-60
2022/03/10 01:42:50;;;;;;;25.60;13.00;;;3.00;52.80;;;;;;9177258;19;20014;-60
2022/03/10 01:46:02;;;;;;;29.25;13.60;;;3.00;52.80;;;;;;9185136;19;20015;-59
2022/03/10 01:49:08;;;;;;;33.22;13.73;;;3.00;53.00;;;;;;9184864;19;20026;-62
2022/03/10 01:52:13;;;;;;;25.35;12.90;;;3.00;52.90;;;;;;9186321;19;20018;-61
2022/03/10 01:55:18;;;;;;;23.70;12.70;;;2.90;52.90;;;;;;9183850;19;20122;-60
2022/03/10 01:58:23;;;;;;;23.50;11.88;;;2.90;53.00;;;;;;9181938;19;20022;-60
2022/03/10 02:01:35;;;;;;;27.38;12.80;;;2.90;53.00;;;;;;9180993;19;20051;-61
2022/03/10 02:04:41;;;;;;;27.83;13.93;;;2.90;53.00;;;;;;9181210;19;20019;-60
2022/03/10 02:11:04;;;;;;;30.02;13.43;;;2.90;53.10;;;;;;9186170;19;20029;-61
2022/03/10 02:17:29;;;;;;;29.08;12.75;;;2.80;53.10;;;;;;9186062;19;20479;-59
2022/03/10 02:20:35;;;;;;;34.60;13.77;;;2.80;53.10;;;;;;9179723;19;20019;-61
2022/03/10 02:23:44;;;;;;;24.33;13.90;;;2.80;53.20;;;;;;9183937;19;20014;-62
2022/03/10 02:26:49;;;;;;;24.55;13.27;;;2.80;53.20;;;;;;9183088;19;20022;-61
2022/03/10 02:29:57;;;;;;;29.30;14.05;;;2.70;53.20;;;;;;9182461;19;20022;-60
2022/03/10 02:33:02;;;;;;;22.67;12.93;;;2.80;53.30;;;;;;9184758;19;20523;-60
2022/03/10 02:36:07;;;;;;;28.50;12.88;;;2.70;53.20;;;;;;9183688;19;20013;-61
2022/03/10 02:39:15;;;;;;;28.33;12.48;;;2.80;53.30;;;;;;9182351;19;20029;-59
2022/03/10 02:42:20;;;;;;;25.80;13.30;;;2.70;53.40;;;;;;9182991;19;20026;-60
2022/03/10 02:45:27;;;;;;;25.63;12.48;;;2.70;54.00;;;;;;9180900;19;20027;-61
2022/03/10 02:48:32;;;;;;;24.83;13.07;;;2.70;53.40;;;;;;9181773;19;20110;-59
2022/03/10 02:51:37;;;;;;;28.52;13.32;;;2.70;53.40;;;;;;9181615;19;20025;-62
2022/03/10 02:54:45;;;;;;;31.20;13.80;;;2.60;53.40;;;;;;9182653;19;20037;-60
2022/03/10 02:57:50;;;;;;;25.85;13.55;;;2.60;53.50;;;;;;9182836;19;20026;-59
2022/03/10 03:00:55;;;;;;;27.20;13.15;;;2.60;53.50;;;;;;9182676;19;20356;-61
2022/03/10 03:04:01;;;;;;;26.45;12.73;;;2.60;53.50;;;;;;9180888;19;20426;-61
2022/03/10 03:07:06;;;;;;;26.98;12.57;;;2.60;53.50;;;;;;9183026;19;20010;-60
2022/03/10 03:10:15;;;;;;;25.58;12.85;;;2.60;53.60;;;;;;9182227;19;20026;-59
2022/03/10 03:13:21;;;;;;;24.95;13.02;;;2.60;53.70;;;;;;9183628;19;20047;-61
2022/03/10 03:16:27;;;;;;;23.45;12.73;;;2.60;53.70;;;;;;9182806;19;20022;-61
2022/03/10 03:19:32;;;;;;;28.13;13.20;;;2.50;53.70;;;;;;9180810;19;20014;-60
2022/03/10 03:22:37;;;;;;;28.45;13.90;;;2.50;53.70;;;;;;9182076;19;20456;-61
2022/03/10 03:25:44;;;;;;;26.92;13.65;;;2.50;53.70;;;;;;9179334;19;20029;-59
2022/03/10 03:28:49;;;;;;;28.88;13.30;;;2.50;53.80;;;;;;9179826;19;20022;-59
2022/03/10 03:31:55;;;;;;;21.55;11.98;;;2.50;53.80;;;;;;9181379;19;20086;-60
2022/03/10 03:35:00;;;;;;;27.98;13.73;;;2.50;53.80;;;;;;9181284;19;20527;-60
2022/03/10 03:38:05;;;;;;;27.80;13.75;;;2.50;53.80;;;;;;9179547;19;20081;-59
2022/03/10 03:41:12;;;;;;;26.00;14.07;;;2.40;53.80;;;;;;9181141;19;20096;-60
2022/03/10 03:44:17;;;;;;;27.38;13.65;;;2.40;53.80;;;;;;9180692;19;20351;-60
2022/03/10 03:47:23;;;;;;;27.52;13.73;;;2.40;53.90;;;;;;9180781;19;20018;-60
2022/03/10 03:50:27;;;;;;;27.83;13.70;;;2.40;53.90;;;;;;9181350;19;20026;-61
2022/03/10 03:53:33;;;;;;;25.80;13.38;;;2.40;54.00;;;;;;9179041;19;20363;-61
2022/03/10 03:56:41;;;;;;;29.33;13.52;;;2.40;54.00;;;;;;9179368;19;20014;-59
2022/03/10 03:59:49;;;;;;;22.90;12.05;;;2.30;54.00;;;;;;9181146;19;20671;-59
2022/03/10 04:02:54;;;;;;;24.17;12.50;;;2.30;54.00;;;;;;9182280;19;20015;-59
2022/03/10 04:05:59;;;;;;;22.75;11.90;;;2.30;54.10;;;;;;9176538;19;20114;-61
2022/03/10 04:09:04;;;;;;;27.27;13.43;;;2.30;54.00;;;;;;9178491;19;20459;-61
2022/03/10 04:12:12;;;;;;;22.83;12.55;;;2.30;54.10;;;;;;9182558;19;20114;-61
2022/03/10 04:15:17;;;;;;;23.23;12.20;;;2.20;54.10;;;;;;9180528;19;20019;-60
2022/03/10 04:18:22;;;;;;;23.10;12.70;;;2.20;54.10;;;;;;9180384;19;20034;-60
2022/03/10 04:21:27;;;;;;;28.23;13.23;;;2.20;54.20;;;;;;9174169;19;20021;-60
2022/03/10 04:24:32;;;;;;;26.85;12.70;;;2.20;54.20;;;;;;9177702;19;20026;-61
2022/03/10 04:27:40;;;;;;;30.83;12.65;;;2.20;54.20;;;;;;9179840;19;20482;-61
2022/03/10 04:30:45;;;;;;;24.30;12.82;;;2.10;54.20;;;;;;9175984;19;20019;-60
2022/03/10 04:33:50;;;;;;;23.88;12.80;;;2.10;54.30;;;;;;9178445;19;20520;-60
2022/03/10 04:36:55;;;;;;;23.45;12.80;;;2.10;54.20;;;;;;9179018;19;20018;-60
2022/03/10 04:40:00;;;;;;;23.67;12.80;;;2.10;54.30;;;;;;9176853;19;20494;-59
2022/03/10 04:43:08;;;;;;;23.25;12.10;;;2.10;54.30;;;;;;9177714;19;20026;-59
2022/03/10 04:46:13;;;;;;;25.70;13.18;;;2.10;54.40;;;;;;9176421;19;20244;-61
2022/03/10 04:49:18;;;;;;;27.10;12.52;;;2.10;54.40;;;;;;9180515;19;20018;-62
2022/03/10 04:52:23;;;;;;;25.35;12.07;;;2.10;54.40;;;;;;9178074;19;20014;-60
2022/03/10 04:55:28;;;;;;;27.20;13.77;;;2.10;54.50;;;;;;9178699;19;20029;-60
2022/03/10 04:58:36;;;;;;;24.33;11.43;;;2.10;54.50;;;;;;9178741;19;20022;-62
2022/03/10 05:01:41;;;;;;;27.13;13.38;;;2.00;54.50;;;;;;9175866;19;20100;-62
2022/03/10 05:04:46;;;;;;;27.40;12.38;;;2.00;54.50;;;;;;9178574;19;20452;-59
2022/03/10 05:07:51;;;;;;;24.67;12.77;;;2.00;54.50;;;;;;9177597;19;20019;-60
2022/03/10 05:10:57;;;;;;;24.00;12.93;;;1.90;54.50;;;;;;9178074;19;20007;-59
2022/03/10 05:14:05;;;;;;;22.10;11.35;;;2.00;54.60;;;;;;9179649;19;20015;-60
2022/03/10 05:17:11;;;;;;;27.10;11.18;;;1.90;54.60;;;;;;9180329;19;20046;-60
2022/03/10 05:20:16;;;;;;;23.27;12.88;;;1.90;54.60;;;;;;9180704;19;20014;-61
2022/03/10 05:23:24;;;;;;;26.95;13.05;;;1.90;54.60;;;;;;9182445;19;20343;-60
2022/03/10 05:26:29;;;;;;;27.73;12.77;;;1.90;54.60;;;;;;9184136;19;20033;-59
2022/03/10 05:29:40;;;;;;;26.83;12.00;;;1.90;54.70;;;;;;9187138;19;20472;-61
2022/03/10 05:32:45;;;;;;;24.02;12.40;;;1.80;54.70;;;;;;9185685;19;20108;-63
2022/03/10 05:35:50;;;;;;;22.15;11.88;;;1.80;54.70;;;;;;9185893;19;20370;-60
2022/03/10 05:38:55;;;;;;;25.58;12.38;;;1.80;55.30;;;;;;9187152;19;20094;-61
2022/03/10 05:42:00;;;;;;;23.67;12.70;;;1.80;54.70;;;;;;9186449;19;20029;-60
2022/03/10 05:45:09;;;;;;;31.38;12.23;;;1.80;54.80;;;;;;9184089;19;20015;-59
2022/03/10 05:48:14;;;;;;;28.00;12.43;;;1.80;54.80;;;;;;9185688;19;20079;-62
2022/03/10 05:51:21;;;;;;;23.02;11.90;;;1.80;54.80;;;;;;9185857;19;20018;-60
2022/03/10 05:54:26;;;;;;;24.48;12.35;;;1.80;54.80;;;;;;9184758;19;20021;-61
2022/03/10 05:57:31;;;;;;;26.23;13.77;;;1.70;54.90;;;;;;9186866;19;20018;-59
2022/03/10 06:00:38;;;;;;;25.27;11.15;;;1.70;54.90;;;;;;9186996;19;20022;-61
2022/03/10 06:03:44;;;;;;;24.65;11.18;;;1.70;55.00;;;;;;9186381;19;20442;-61
2022/03/10 06:06:49;;;;;;;21.30;11.25;;;1.70;54.90;;;;;;9181385;19;20367;-60
2022/03/10 06:09:55;;;;;;;21.83;11.85;;;1.70;55.00;;;;;;9180475;19;20015;-59
2022/03/10 06:13:00;;;;;;;26.70;11.50;;;1.70;55.00;;;;;;9185913;19;20119;-61
2022/03/10 06:16:08;;;;;;;23.88;11.88;;;1.70;55.10;;;;;;9184697;19;20018;-59
2022/03/10 06:19:14;;;;;;;23.77;12.65;;;1.70;55.10;;;;;;9183088;19;20444;-59
2022/03/10 06:22:19;;;;;;;25.63;11.93;;;1.70;55.10;;;;;;9178646;19;20015;-62
2022/03/10 06:25:25;;;;;;;26.38;10.90;;;1.70;55.10;;;;;;9185607;19;20029;-59
2022/03/10 06:28:30;;;;;;;21.10;11.05;;;1.70;55.10;;;;;;9184763;19;20022;-61
2022/03/10 06:31:37;;;;;;;19.27;10.45;;;1.70;55.10;;;;;;9183170;19;20052;-60
2022/03/10 06:34:42;;;;;;;28.70;11.20;;;1.70;55.20;;;;;;9183896;19;20018;-59
2022/03/10 06:37:48;;;;;;;22.42;11.43;;;1.70;55.20;;;;;;9180406;19;20513;-59
2022/03/10 06:40:53;;;;;;;23.23;10.38;;;1.70;55.20;;;;;;9184395;19;20029;-60
2022/03/10 06:43:58;;;;;;;25.27;11.32;;;1.70;55.30;;;;;;9184261;19;20044;-58
2022/03/10 06:47:07;;;;;;;22.77;11.05;;;1.70;55.30;;;;;;9182585;19;20018;-60
2022/03/10 06:50:12;;;;;;;22.20;10.52;;;1.70;55.30;;;;;;9184315;19;20030;-60
2022/03/10 06:53:17;;;;;;;20.80;10.90;;;1.70;55.40;;;;;;9181936;19;20022;-61
2022/03/10 06:56:22;;;;;;;21.40;10.38;;;1.80;55.40;;;;;;9181169;19;20061;-59
2022/03/10 06:59:27;;;;;;;22.27;10.43;;;1.80;55.40;;;;;;9181333;19;20022;-59
2022/03/10 07:02:35;;;;;;;27.90;10.68;;;1.80;55.50;;;;;;9182264;19;20015;-61
2022/03/10 07:05:41;;;;;;;19.52;10.07;;;1.90;55.60;;;;;;9183956;19;20021;-59
2022/03/10 07:08:46;;;;;;;23.73;9.63;;;1.90;55.60;;;;;;9182916;19;20022;-59
2022/03/10 07:11:52;;;;;;;18.83;9.98;;;1.90;55.60;;;;;;9181589;19;20010;-58
2022/03/10 07:14:57;;;;;;;24.15;10.77;;;2.00;55.70;;;;;;9178289;19;20022;-58
2022/03/10 07:18:05;;;;;;;21.75;10.32;;;2.10;55.70;;;;;;9173014;19;20002;-59
2022/03/10 07:21:10;;;;;;;21.60;10.88;;;2.10;55.80;;;;;;9171678;19;20021;-59
2022/03/10 07:24:15;;;;;;;21.20;10.85;;;2.20;55.80;;;;;;9174307;19;20741;-61
2022/03/10 07:27:20;;;;;;;20.98;9.20;;;2.30;55.90;;;;;;9170328;19;20026;-59
2022/03/10 07:30:26;;;;;;;20.33;10.43;;;2.40;55.90;;;;;;9173724;19;20014;-59
2022/03/10 07:33:36;;;;;;;22.75;9.82;;;2.50;56.00;;;;;;9172285;19;20030;-60
2022/03/10 07:36:42;;;;;;;19.63;10.30;;;2.60;56.10;;;;;;9177434;19;20019;-60
2022/03/10 07:39:47;;;;;;;22.25;10.55;;;2.70;56.10;;;;;;9180054;19;20025;-59
2022/03/10 07:42:52;;;;;;;28.13;11.10;;;2.80;56.20;;;;;;9176313;19;20022;-59
2022/03/10 07:45:57;;;;;;;22.25;11.35;;;3.00;56.30;;;;;;9175946;19;20022;-59
2022/03/10 07:49:05;;;;;;;24.75;10.15;;;3.20;56.40;;;;;;9171775;19;20025;-60
2022/03/10 07:52:10;;;;;;;24.60;10.88;;;3.40;56.50;;;;;;9178114;19;20018;-62
2022/03/10 07:55:16;;;;;;;20.80;10.18;;;3.60;56.40;;;;;;9181983;19;20027;-59
2022/03/10 07:58:22;;;;;;;25.42;10.02;;;3.80;56.50;;;;;;9173473;19;20913;-60
2022/03/10 08:01:27;;;;;;;23.10;11.07;;;4.00;56.60;;;;;;9177046;19;20479;-61
2022/03/10 08:04:35;;;;;;;19.13;10.63;;;4.30;56.60;;;;;;9180561;19;20048;-61
2022/03/10 08:07:40;;;;;;;21.83;10.02;;;4.60;56.60;;;;;;9178380;19;20364;-59
2022/03/10 08:10:45;;;;;;;20.30;10.40;;;4.80;56.50;;;;;;9181316;19;20010;-60
2022/03/10 08:13:50;;;;;;;20.90;10.27;;;5.10;56.40;;;;;;9179637;19;20025;-60
2022/03/10 08:16:55;;;;;;;18.58;10.55;;;5.40;56.40;;;;;;9178510;19;20018;-61
2022/03/10 08:20:03;;;;;;;21.40;11.25;;;5.60;56.40;;;;;;9173074;19;20362;-60
2022/03/10 08:23:09;;;;;;;20.90;10.20;;;5.90;56.40;;;;;;9177050;19;20019;-60
2022/03/10 08:26:14;;;;;;;21.67;10.77;;;6.20;56.40;;;;;;9179796;19;20451;-60
2022/03/10 08:29:19;;;;;;;21.00;10.57;;;6.50;56.30;;;;;;9174147;19;20018;-61
2022/03/10 08:32:25;;;;;;;24.00;11.68;;;6.70;56.30;;;;;;9178541;19;20045;-62
2022/03/10 08:35:33;;;;;;;24.75;11.10;;;7.00;56.20;;;;;;9176439;19;20082;-61
2022/03/10 08:38:38;;;;;;;18.20;10.27;;;7.30;56.10;;;;;;9174473;19;20829;-63
2022/03/10 08:41:43;;;;;;;19.48;10.48;;;7.60;56.00;;;;;;9176822;19;20022;-61
2022/03/10 08:44:48;;;;;;;25.20;11.40;;;7.90;56.00;;;;;;9180403;19;20502;-63
2022/03/10 08:47:58;;;;;;;25.70;12.20;;;8.20;55.80;;;;;;9173057;19;20015;-61
2022/03/10 08:51:06;;;;;;;26.90;12.15;;;8.50;55.80;;;;;;9177406;19;20018;-63
2022/03/10 08:54:12;;;;;;;40.28;16.35;;;8.70;55.60;;;;;;9177422;19;20368;-62
2022/03/10 08:57:17;;;;;;;22.35;9.75;;;8.90;55.50;;;;;;9175752;19;20930;-61
2022/03/10 09:00:22;;;;;;;23.23;9.65;;;9.20;55.40;;;;;;9177614;19;20014;-61
2022/03/10 09:03:33;;;;;;;28.35;10.40;;;9.40;55.30;;;;;;9175648;19;20014;-63
2022/03/10 09:06:41;;;;;;;23.23;10.48;;;9.60;55.20;;;;;;9167598;19;20014;-61
2022/03/10 09:09:46;;;;;;;17.85;10.40;;;9.80;55.00;;;;;;9176595;19;20792;-61
2022/03/10 09:12:51;;;;;;;18.55;9.70;;;10.10;55.00;;;;;;9177460;19;20011;-62
2022/03/10 09:15:56;;;;;;;18.58;9.32;;;10.30;54.90;;;;;;9179334;19;20026;-63
2022/03/10 09:19:01;;;;;;;18.63;10.10;;;10.50;54.80;;;;;;9176355;19;20085;-62
2022/03/10 09:22:09;;;;;;;22.38;10.13;;;10.70;54.70;;;;;;9175065;19;20736;-61
2022/03/10 09:25:14;;;;;;;26.25;10.90;;;10.90;54.40;;;;;;9176050;19;20026;-63
2022/03/10 09:28:19;;;;;;;21.08;9.35;;;11.10;54.40;;;;;;9175045;19;20023;-60
2022/03/10 09:31:25;;;;;;;27.23;9.60;;;11.30;54.20;;;;;;9174549;19;20352;-62
2022/03/10 09:34:30;;;;;;;16.05;8.95;;;11.50;54.00;;;;;;9175811;19;20467;-61
2022/03/10 09:37:38;;;;;;;25.45;10.77;;;11.70;53.90;;;;;;9175137;19;20041;-61
2022/03/10 09:40:43;;;;;;;18.27;10.00;;;11.90;53.80;;;;;;9173661;19;20471;-62
2022/03/10 09:43:50;;;;;;;19.88;10.50;;;12.10;53.60;;;;;;9176202;19;20352;-63
2022/03/10 09:47:02;;;;;;;18.77;9.52;;;12.30;53.40;;;;;;9172815;19;20018;-61
2022/03/10 09:50:10;;;;;;;22.20;11.00;;;12.50;53.30;;;;;;9174701;19;20018;-60
2022/03/10 09:53:18;;;;;;;26.77;10.90;;;12.70;53.10;;;;;;9172124;19;20021;-61
2022/03/10 09:56:24;;;;;;;19.25;10.90;;;12.80;52.90;;;;;;9174077;19;20025;-63
2022/03/10 09:59:30;;;;;;;20.48;9.88;;;13.00;52.90;;;;;;9171361;19;20018;-61
2022/03/10 10:02:36;;;;;;;24.27;9.70;;;13.20;52.70;;;;;;9173647;19;20019;-61
2022/03/10 10:05:43;;;;;;;28.13;10.98;;;13.40;52.60;;;;;;9173235;19;20022;-61
2022/03/10 10:08:56;;;;;;;18.92;10.63;;;13.50;52.40;;;;;;9181442;19;20479;-63
2022/03/10 10:12:08;;;;;;;27.60;11.80;;;13.70;52.10;;;;;;9177193;19;20352;-61
2022/03/10 10:15:13;;;;;;;21.83;11.52;;;13.90;52.10;;;;;;9183204;19;20092;-62
2022/03/10 10:18:18;;;;;;;24.88;11.40;;;14.10;52.10;;;;;;9182694;19;20010;-63
2022/03/10 10:21:43;;;;;;;18.33;11.43;;;14.20;51.90;;;;;;9176872;19;20021;-60
2022/03/10 10:24:55;;;;;;;21.67;12.10;;;14.40;51.80;;;;;;9184822;19;20033;-62
2022/03/10 10:28:00;;;;;;;22.33;11.50;;;14.60;51.50;;;;;;9183430;19;20044;-66
2022/03/10 10:31:08;;;;;;;21.10;10.85;;;14.70;51.60;;;;;;9184972;19;20014;-62
2022/03/10 10:34:13;;;;;;;26.55;12.68;;;14.90;51.50;;;;;;9179493;19;20014;-62
2022/03/10 10:37:24;;;;;;;35.17;12.18;;;15.10;51.40;;;;;;9184551;19;20014;-64
2022/03/10 10:40:33;;;;;;;28.13;13.23;;;15.30;51.00;;;;;;9185448;19;20010;-62
2022/03/10 10:43:42;;;;;;;26.48;12.60;;;15.40;50.90;;;;;;9183969;19;20018;-63
2022/03/10 10:46:49;;;;;;;25.17;12.60;;;15.50;50.70;;;;;;9184039;19;20042;-63
2022/03/10 10:50:02;;;;;;;24.60;12.43;;;15.70;50.70;;;;;;9183964;19;20776;-63
2022/03/10 10:53:08;;;;;;;21.58;12.13;;;15.80;50.40;;;;;;9182069;19;20586;-63
2022/03/10 10:56:19;;;;;;;29.58;13.07;;;16.00;50.50;;;;;;9181988;19;20021;-63
2022/03/10 10:59:32;;;;;;;22.92;13.13;;;16.10;50.20;;;;;;9181514;19;20465;-62
2022/03/10 11:02:45;;;;;;;24.27;13.50;;;16.20;50.00;;;;;;9181053;19;20363;-66
2022/03/10 11:05:51;;;;;;;27.38;14.60;;;16.30;50.10;;;;;;9181362;19;20052;-63
2022/03/10 11:08:56;;;;;;;22.65;12.75;;;16.40;49.80;;;;;;9176930;19;20755;-62
2022/03/10 11:12:04;;;;;;;33.35;14.27;;;16.50;49.70;;;;;;9170029;19;20014;-59
2022/03/10 11:15:10;;;;;;;22.13;12.40;;;16.60;49.60;;;;;;9173470;19;20019;-62
2022/03/10 11:18:16;;;;;;;24.20;13.63;;;16.60;49.50;;;;;;9171300;19;20014;-61
2022/03/10 11:21:41;;;;;;;26.48;13.88;;;16.60;49.40;;;;;;9170352;19;20402;-60
2022/03/10 11:25:03;;;;;;;26.92;14.15;;;16.70;49.10;;;;;;9172964;19;20044;-60
2022/03/10 11:28:17;;;;;;;23.98;13.70;;;16.80;49.00;;;;;;9173678;19;20026;-64
2022/03/10 11:31:25;;;;;;;30.08;13.93;;;16.90;49.10;;;;;;9174130;19;20026;-62
2022/03/10 11:34:50;;;;;;;28.75;14.57;;;17.00;49.20;;;;;;9176724;19;20026;-63
2022/03/10 11:37:55;;;;;;;25.52;14.15;;;17.10;48.80;;;;;;9176472;19;20478;-60
2022/03/10 11:41:00;;;;;;;27.48;13.82;;;17.20;49.70;;;;;;9177981;19;20022;-62
2022/03/10 11:44:08;;;;;;;26.63;14.13;;;17.30;48.90;;;;;;9180599;19;20018;-62
2022/03/10 11:47:19;;;;;;;27.10;14.40;;;17.50;49.30;;;;;;9164350;19;20065;-61
2022/03/10 11:50:29;;;;;;;23.20;12.75;;;17.50;48.40;;;;;;9172762;19;20022;-61
2022/03/10 11:53:56;;;;;;;31.13;14.93;;;17.70;48.40;;;;;;9171583;19;20014;-61
2022/03/10 11:57:06;;;;;;;25.83;15.13;;;17.80;47.90;;;;;;9176354;19;20123;-60
2022/03/10 12:00:18;;;;;;;26.45;14.40;;;17.90;48.20;;;;;;9176633;19;20021;-59
2022/03/10 12:03:30;;;;;;;25.15;13.88;;;18.00;48.00;;;;;;9177533;19;20026;-61
2022/03/10 12:06:36;;;;;;;33.05;14.73;;;18.10;47.80;;;;;;9179115;19;20128;-61
2022/03/10 12:09:41;;;;;;;29.42;14.65;;;18.20;47.80;;;;;;9176305;19;20592;-59
2022/03/10 12:12:48;;;;;;;30.02;14.52;;;18.30;47.60;;;;;;9169464;19;20116;-62
2022/03/10 12:16:02;;;;;;;25.15;14.13;;;18.40;47.80;;;;;;9173509;19;20130;-61
2022/03/10 12:19:07;;;;;;;25.27;14.02;;;18.40;47.30;;;;;;9174075;19;20105;-61
2022/03/10 12:22:12;;;;;;;31.13;14.55;;;18.50;47.30;;;;;;9171366;19;20018;-62
2022/03/10 12:25:21;;;;;;;25.17;14.38;;;18.60;47.20;;;;;;9168963;19;20390;-62
2022/03/10 12:28:30;;;;;;;36.65;14.45;;;18.60;46.90;;;;;;9169452;19;20022;-63
2022/03/10 12:31:39;;;;;;;26.55;14.57;;;18.70;47.00;;;;;;9171588;19;20089;-60
2022/03/10 12:34:48;;;;;;;26.08;13.57;;;18.70;47.40;;;;;;9172938;19;20011;-63
2022/03/10 12:37:53;;;;;;;26.77;14.13;;;18.80;46.70;;;;;;9172545;19;20014;-61
2022/03/10 12:40:58;;;;;;;26.77;13.55;;;18.80;46.70;;;;;;9172504;19;20483;-61
2022/03/10 12:44:06;;;;;;;28.45;14.27;;;18.90;46.50;;;;;;9175021;19;20018;-62
2022/03/10 12:47:15;;;;;;;28.88;14.68;;;18.90;46.50;;;;;;9171794;19;20484;-63
2022/03/10 12:50:20;;;;;;;28.52;14.30;;;18.90;46.20;;;;;;9175841;19;20014;-61
2022/03/10 12:53:25;;;;;;;28.08;14.98;;;18.90;46.30;;;;;;9176534;19;20019;-61
2022/03/10 12:56:30;;;;;;;29.20;14.93;;;18.90;46.10;;;;;;9177333;19;20022;-60
2022/03/10 12:59:37;;;;;;;29.40;14.38;;;18.90;46.10;;;;;;9177179;19;20364;-63
2022/03/10 13:02:51;;;;;;;33.55;15.02;;;18.90;46.00;;;;;;9172159;19;20040;-62
2022/03/10 13:05:56;;;;;;;32.45;14.55;;;18.90;45.80;;;;;;9172280;19;20027;-62
2022/03/10 13:09:02;;;;;;;28.77;14.55;;;18.80;45.80;;;;;;9175840;19;20793;-62
2022/03/10 13:12:08;;;;;;;30.42;14.93;;;18.70;45.70;;;;;;9177139;19;20025;-62
2022/03/10 13:15:21;;;;;;;31.23;14.70;;;18.70;45.60;;;;;;9175265;19;20019;-60
2022/03/10 13:18:29;;;;;;;27.92;15.15;;;18.60;45.30;;;;;;9179175;19;20019;-62
2022/03/10 13:21:34;;;;;;;28.23;15.40;;;18.50;45.50;;;;;;9173318;19;20598;-60
2022/03/10 13:24:42;;;;;;;33.50;15.30;;;18.40;45.50;;;;;;9178807;19;20011;-62
2022/03/10 13:27:48;;;;;;;28.75;16.48;;;18.30;45.40;;;;;;9177633;19;20368;-60
2022/03/10 13:30:54;;;;;;;29.33;17.10;;;18.20;45.40;;;;;;9174108;19;20030;-62
2022/03/10 13:34:04;;;;;;;26.48;14.63;;;18.10;45.40;;;;;;9175926;19;20019;-62
2022/03/10 13:37:10;;;;;;;33.15;17.85;;;18.10;45.30;;;;;;9175069;19;20018;-60
2022/03/10 13:40:16;;;;;;;31.38;15.90;;;17.90;45.30;;;;;;9185523;19;20014;-63
2022/03/10 13:43:26;;;;;;;29.60;15.50;;;17.90;45.40;;;;;;9181594;19;20553;-60
2022/03/10 13:46:35;;;;;;;37.60;16.15;;;17.80;45.30;;;;;;9185348;19;20078;-60
2022/03/10 13:49:48;;;;;;;39.13;15.90;;;17.70;45.30;;;;;;9185110;19;20025;-61
2022/03/10 13:52:55;;;;;;;32.33;16.80;;;17.60;45.10;;;;;;9187547;19;20372;-61
2022/03/10 13:56:01;;;;;;;39.30;18.95;;;17.60;45.50;;;;;;9184550;19;20596;-60
2022/03/10 13:59:09;;;;;;;38.40;19.67;;;17.50;45.30;;;;;;9185562;19;21548;-62
2022/03/10 14:02:27;;;;;;;41.47;16.80;;;17.50;45.30;;;;;;9186116;19;20021;-60
2022/03/10 14:05:44;;;;;;;36.83;17.38;;;17.40;45.00;;;;;;9180538;19;20019;-60
2022/03/10 14:08:52;;;;;;;35.30;17.23;;;17.40;45.00;;;;;;9182368;19;20026;-61
2022/03/10 14:11:57;;;;;;;29.85;15.82;;;17.40;45.20;;;;;;9183569;19;20026;-60
2022/03/10 14:15:02;;;;;;;33.08;16.52;;;17.40;45.10;;;;;;9183415;19;20014;-61
2022/03/10 14:18:12;;;;;;;32.30;16.60;;;17.40;45.00;;;;;;9184485;19;20479;-62
2022/03/10 14:21:21;;;;;;;33.80;17.33;;;17.40;44.90;;;;;;9174800;19;20348;-59
2022/03/10 14:24:28;;;;;;;32.33;16.45;;;17.40;44.90;;;;;;9184622;19;20014;-60
2022/03/10 14:27:44;;;;;;;30.25;16.58;;;17.40;45.00;;;;;;9183837;19;20010;-60
2022/03/10 14:30:51;;;;;;;35.60;17.38;;;17.40;44.60;;;;;;9181617;19;20047;-60
2022/03/10 14:33:56;;;;;;;35.88;16.33;;;17.40;44.90;;;;;;9182866;19;20014;-63
2022/03/10 14:37:04;;;;;;;31.55;16.35;;;17.40;44.90;;;;;;9186593;19;20535;-61
2022/03/10 14:40:11;;;;;;;33.35;17.15;;;17.40;44.70;;;;;;9185615;19;20007;-60
2022/03/10 14:43:16;;;;;;;33.22;16.92;;;17.40;45.30;;;;;;9183525;19;20030;-61
2022/03/10 14:46:23;;;;;;;35.40;18.13;;;17.40;44.70;;;;;;9186150;19;20347;-60
2022/03/10 14:49:29;;;;;;;31.60;16.67;;;17.40;44.60;;;;;;9184440;19;20404;-62
2022/03/10 14:52:36;;;;;;;28.25;16.75;;;17.40;44.50;;;;;;9180387;19;20082;-61
2022/03/10 14:55:41;;;;;;;29.92;16.33;;;17.40;44.30;;;;;;9183352;19;20022;-60
2022/03/10 14:58:48;;;;;;;34.95;16.90;;;17.40;44.30;;;;;;9184591;19;20543;-61
2022/03/10 15:01:55;;;;;;;30.20;17.40;;;17.30;44.20;;;;;;9183870;19;20021;-61
2022/03/10 15:05:01;;;;;;;34.35;16.52;;;17.30;44.20;;;;;;9185301;19;20037;-63
2022/03/10 15:08:09;;;;;;;33.13;15.70;;;17.30;44.20;;;;;;9180178;19;20128;-61
2022/03/10 15:11:15;;;;;;;31.98;16.15;;;17.30;44.10;;;;;;9179438;19;20010;-61
2022/03/10 15:14:20;;;;;;;28.45;15.85;;;17.30;44.20;;;;;;9181061;19;20022;-61
2022/03/10 15:17:25;;;;;;;30.08;15.23;;;17.30;44.20;;;;;;9182495;19;20059;-60
2022/03/10 15:20:31;;;;;;;25.42;13.77;;;17.30;44.10;;;;;;9177981;19;20007;-63
2022/03/10 15:23:43;;;;;;;25.65;13.40;;;17.30;44.00;;;;;;9183255;19;20023;-61
2022/03/10 15:26:54;;;;;;;22.55;12.95;;;17.30;43.80;;;;;;9182148;19;20014;-61
2022/03/10 15:30:00;;;;;;;25.27;13.07;;;17.30;44.00;;;;;;9181575;19;20015;-61
2022/03/10 15:33:05;;;;;;;20.40;11.27;;;17.20;43.90;;;;;;9177344;19;20137;-63
2022/03/10 15:36:10;;;;;;;23.45;11.68;;;17.20;43.90;;;;;;9178323;19;20022;-61
2022/03/10 15:39:18;;;;;;;21.38;11.57;;;17.20;43.90;;;;;;9174851;19;20518;-63
2022/03/10 15:42:23;;;;;;;17.33;10.45;;;17.20;43.80;;;;;;9173741;19;20018;-62
2022/03/10 15:45:29;;;;;;;24.00;10.48;;;17.20;43.80;;;;;;9175467;19;20022;-62
2022/03/10 15:48:36;;;;;;;16.63;9.93;;;17.10;43.70;;;;;;9176491;19;20023;-61
2022/03/10 15:51:41;;;;;;;19.30;8.43;;;17.00;43.70;;;;;;9173702;19;20816;-61
2022/03/10 15:54:49;;;;;;;14.07;8.20;;;17.00;43.70;;;;;;9175451;19;20026;-62
2022/03/10 15:57:57;;;;;;;14.48;8.20;;;17.00;43.50;;;;;;9176156;19;20368;-62
2022/03/10 16:01:02;;;;;;;11.35;7.07;;;16.90;43.60;;;;;;9174482;19;20486;-62